Time;durP1;ratioP1;P1;durP2;ratioP2;P2;SDS_P1;SDS_P2;PMS_P1;PMS_P2;Temp;Humidity;BMP_temperature;BMP_pressure;BME280_temperature;BME280_humidity;BME280_pressure;Samples;Min_cycle;Max_cycle;Signal;HPM_P1;HPM_P2
2021/03/27 00:02:02;;;;;;;7.50;5.35;;;;;;;;;;5071416;28;20384;-71
2021/03/27 00:04:38;;;;;;;5.30;4.70;;;;;;;;;;5069957;28;20440;-71
2021/03/27 00:07:11;;;;;;;6.78;5.47;;;;;;;;;;5070928;28;20828;-71
2021/03/27 00:09:39;;;;;;;6.33;4.80;;;;;;;;;;5070095;28;21071;-71
2021/03/27 00:12:12;;;;;;;6.35;4.88;;;;;;;;;;5070792;28;20787;-71
2021/03/27 00:14:41;;;;;;;8.93;6.20;;;;;;;;;;5070255;28;20372;-71
2021/03/27 00:17:09;;;;;;;7.80;5.85;;;;;;;;;;5070843;28;20404;-71
2021/03/27 00:19:52;;;;;;;7.22;5.18;;;;;;;;;;5068424;28;20545;-71
2021/03/27 00:22:29;;;;;;;6.05;5.22;;;;;;;;;;5069883;28;20933;-73
2021/03/27 00:25:01;;;;;;;7.60;5.37;;;;;;;;;;5070664;28;20372;-71
2021/03/27 00:27:30;;;;;;;7.20;4.70;;;;;;;;;;5070150;28;20375;-71
2021/03/27 00:29:59;;;;;;;4.55;3.35;;;;;;;;;;5070497;28;20720;-70
2021/03/27 00:32:29;;;;;;;4.18;3.78;;;;;;;;;;5069558;28;20371;-71
2021/03/27 00:34:57;;;;;;;3.42;2.72;;;;;;;;;;5070177;28;20860;-71
2021/03/27 00:37:28;;;;;;;3.37;2.87;;;;;;;;;;5070183;28;20728;-71
2021/03/27 00:39:57;;;;;;;4.60;2.60;;;;;;;;;;5070438;28;20411;-71
2021/03/27 00:42:29;;;;;;;3.30;2.17;;;;;;;;;;5069521;28;20368;-72
2021/03/27 00:45:00;;;;;;;3.00;2.20;;;;;;;;;;5070613;28;20437;-71
2021/03/27 00:47:28;;;;;;;2.65;2.00;;;;;;;;;;5069956;28;20387;-70
2021/03/27 00:50:07;;;;;;;1.95;1.70;;;;;;;;;;5070569;28;20380;-70
2021/03/27 00:52:38;;;;;;;3.40;2.40;;;;;;;;;;5069528;28;20370;-70
2021/03/27 00:55:14;;;;;;;2.60;1.60;;;;;;;;;;5071382;28;20371;-70
2021/03/27 00:57:43;;;;;;;2.90;1.90;;;;;;;;;;5073680;28;20451;-70
2021/03/27 01:00:15;;;;;;;1.80;1.50;;;;;;;;;;5074183;28;20460;-70
2021/03/27 01:02:46;;;;;;;1.88;1.77;;;;;;;;;;5073522;28;20877;-69
2021/03/27 01:05:13;;;;;;;2.40;1.80;;;;;;;;;;5074435;28;20852;-69
2021/03/27 01:07:40;;;;;;;2.65;1.92;;;;;;;;;;5073682;28;20386;-69
2021/03/27 01:10:06;;;;;;;2.10;1.90;;;;;;;;;;5074016;28;20384;-69
2021/03/27 01:12:34;;;;;;;2.13;1.90;;;;;;;;;;5073146;28;20844;-68
2021/03/27 01:15:02;;;;;;;3.90;2.22;;;;;;;;;;5074044;28;20435;-68
2021/03/27 01:17:30;;;;;;;2.97;2.10;;;;;;;;;;5073076;28;20734;-69
2021/03/27 01:20:01;;;;;;;2.40;1.90;;;;;;;;;;5073848;28;20418;-69
2021/03/27 01:22:28;;;;;;;2.40;2.20;;;;;;;;;;5072848;28;20410;-69
2021/03/27 01:24:58;;;;;;;2.22;1.95;;;;;;;;;;5073852;28;20458;-69
2021/03/27 01:27:26;;;;;;;2.75;2.22;;;;;;;;;;5073091;28;20371;-70
2021/03/27 01:29:57;;;;;;;2.08;1.80;;;;;;;;;;5073657;28;20380;-69
2021/03/27 01:32:42;;;;;;;2.10;1.65;;;;;;;;;;5072725;28;20368;-71
2021/03/27 01:35:13;;;;;;;2.13;1.80;;;;;;;;;;5073602;28;20462;-68
2021/03/27 01:37:44;;;;;;;2.63;1.75;;;;;;;;;;5072616;28;20426;-70
2021/03/27 01:40:28;;;;;;;4.63;2.03;;;;;;;;;;5073304;28;20877;-70
2021/03/27 01:43:19;;;;;;;2.55;2.00;;;;;;;;;;5072764;28;20836;-68
2021/03/27 01:45:52;;;;;;;2.00;1.80;;;;;;;;;;5072296;28;20528;-68
2021/03/27 01:48:22;;;;;;;1.95;1.50;;;;;;;;;;5073154;28;20847;-69
2021/03/27 01:50:53;;;;;;;3.38;1.75;;;;;;;;;;5072854;28;20368;-69
2021/03/27 01:53:22;;;;;;;2.03;1.90;;;;;;;;;;5073207;28;20368;-70
2021/03/27 01:55:48;;;;;;;2.75;1.70;;;;;;;;;;5072694;28;20449;-70
2021/03/27 01:58:17;;;;;;;1.40;1.30;;;;;;;;;;5072990;28;20376;-70
2021/03/27 02:00:57;;;;;;;1.88;1.67;;;;;;;;;;5071740;28;21055;-71
2021/03/27 02:03:32;;;;;;;2.63;1.67;;;;;;;;;;5072248;28;20740;-73
2021/03/27 02:06:05;;;;;;;3.78;2.00;;;;;;;;;;5072661;28;20424;-71
2021/03/27 02:08:30;;;;;;;1.95;1.60;;;;;;;;;;5072396;28;20367;-71
2021/03/27 02:11:11;;;;;;;2.30;1.70;;;;;;;;;;5072873;28;20882;-69
2021/03/27 02:13:45;;;;;;;1.92;1.60;;;;;;;;;;5071923;28;20412;-70
2021/03/27 02:16:16;;;;;;;2.10;1.70;;;;;;;;;;5072348;28;20368;-70
2021/03/27 02:19:01;;;;;;;2.10;1.70;;;;;;;;;;5071799;28;20459;-70
2021/03/27 02:21:27;;;;;;;2.40;1.30;;;;;;;;;;5071324;28;20795;-70
2021/03/27 02:23:53;;;;;;;2.30;1.40;;;;;;;;;;5072179;28;20852;-70
2021/03/27 02:26:19;;;;;;;1.83;1.40;;;;;;;;;;5072367;28;20426;-70
2021/03/27 02:28:45;;;;;;;2.05;1.45;;;;;;;;;;5071478;28;20379;-70
2021/03/27 02:31:13;;;;;;;1.60;1.25;;;;;;;;;;5070762;28;20860;-69
2021/03/27 02:33:39;;;;;;;1.70;1.40;;;;;;;;;;5071542;28;20376;-70
2021/03/27 02:36:05;;;;;;;1.63;1.27;;;;;;;;;;5072064;28;20467;-70
2021/03/27 02:38:50;;;;;;;1.90;1.30;;;;;;;;;;5070939;28;20477;-69
2021/03/27 02:41:31;;;;;;;1.20;1.10;;;;;;;;;;5072005;28;20383;-69
2021/03/27 02:43:58;;;;;;;1.20;1.10;;;;;;;;;;5071723;28;20437;-69
2021/03/27 02:46:27;;;;;;;1.20;1.10;;;;;;;;;;5071365;28;20368;-72
2021/03/27 02:48:56;;;;;;;2.17;1.55;;;;;;;;;;5071637;28;20478;-69
2021/03/27 02:51:22;;;;;;;2.10;1.60;;;;;;;;;;5071736;28;20375;-70
2021/03/27 02:53:54;;;;;;;2.47;1.50;;;;;;;;;;5071081;28;20375;-70
2021/03/27 02:56:27;;;;;;;2.17;1.80;;;;;;;;;;5071724;28;20487;-71
2021/03/27 02:58:56;;;;;;;2.30;2.08;;;;;;;;;;5071132;28;20931;-70
2021/03/27 03:01:34;;;;;;;2.30;1.90;;;;;;;;;;5071568;28;20466;-70
2021/03/27 03:04:12;;;;;;;2.80;2.28;;;;;;;;;;5071522;28;20425;-70
2021/03/27 03:06:41;;;;;;;3.50;2.25;;;;;;;;;;5070965;28;20368;-70
2021/03/27 03:09:11;;;;;;;2.38;2.00;;;;;;;;;;5071173;28;20807;-69
2021/03/27 03:11:46;;;;;;;2.50;1.70;;;;;;;;;;5070616;28;20871;-68
2021/03/27 03:14:19;;;;;;;2.13;1.90;;;;;;;;;;5071303;28;20456;-67
2021/03/27 03:16:48;;;;;;;2.78;2.30;;;;;;;;;;5070375;28;20430;-68
2021/03/27 03:19:22;;;;;;;2.40;1.90;;;;;;;;;;5070681;28;20491;-67
2021/03/27 03:22:06;;;;;;;4.15;1.85;;;;;;;;;;5070338;28;20376;-68
2021/03/27 03:24:40;;;;;;;2.77;2.00;;;;;;;;;;5070345;28;20451;-68
2021/03/27 03:27:24;;;;;;;3.38;2.45;;;;;;;;;;5070992;28;20813;-68
2021/03/27 03:30:09;;;;;;;3.47;1.92;;;;;;;;;;5070288;28;20453;-68
2021/03/27 03:32:35;;;;;;;5.10;2.60;;;;;;;;;;5070000;28;20402;-68
2021/03/27 03:35:26;;;;;;;2.88;2.08;;;;;;;;;;5070780;28;20392;-67
2021/03/27 03:38:15;;;;;;;2.40;1.85;;;;;;;;;;5070398;28;20384;-68
2021/03/27 03:40:41;;;;;;;1.45;1.10;;;;;;;;;;5050363;28;20523;-67
2021/03/27 03:43:16;;;;;;;1.02;0.90;;;;;;;;;;5070644;28;20482;-67
2021/03/27 03:45:51;;;;;;;2.70;1.20;;;;;;;;;;5069989;28;20500;-68
2021/03/27 03:48:36;;;;;;;2.20;1.23;;;;;;;;;;5070583;28;20901;-68
2021/03/27 03:51:06;;;;;;;1.85;1.52;;;;;;;;;;5070554;28;20375;-71
2021/03/27 03:53:35;;;;;;;1.30;1.20;;;;;;;;;;5069976;28;20364;-71
2021/03/27 03:56:20;;;;;;;2.28;0.95;;;;;;;;;;5070418;28;20845;-70
2021/03/27 03:58:52;;;;;;;2.90;1.10;;;;;;;;;;5069607;28;20925;-69
2021/03/27 04:01:21;;;;;;;1.98;0.95;;;;;;;;;;5070519;28;20383;-69
2021/03/27 04:03:47;;;;;;;3.15;1.20;;;;;;;;;;5069901;28;20677;-69
2021/03/27 04:06:20;;;;;;;3.45;1.10;;;;;;;;;;5070365;28;20376;-68
2021/03/27 04:09:12;;;;;;;1.27;1.00;;;;;;;;;;5069846;28;20380;-69
2021/03/27 04:11:44;;;;;;;1.50;1.17;;;;;;;;;;5067949;28;20720;-68
2021/03/27 04:14:30;;;;;;;0.70;0.70;;;;;;;;;;5070456;28;20917;-68
2021/03/27 04:17:01;;;;;;;1.50;0.88;;;;;;;;;;5048616;28;20478;-70
2021/03/27 04:19:28;;;;;;;1.85;1.00;;;;;;;;;;5070290;28;20763;-68
2021/03/27 04:22:08;;;;;;;0.90;0.50;;;;;;;;;;5069478;28;20440;-69
2021/03/27 04:24:38;;;;;;;2.57;0.80;;;;;;;;;;5069738;28;20360;-71
2021/03/27 04:27:23;;;;;;;0.80;0.60;;;;;;;;;;5070564;28;20737;-68
2021/03/27 04:29:55;;;;;;;0.60;0.60;;;;;;;;;;5070388;28;20384;-71
2021/03/27 04:32:38;;;;;;;0.63;0.60;;;;;;;;;;5074418;28;20382;-70
2021/03/27 04:35:07;;;;;;;1.50;0.60;;;;;;;;;;5074788;28;20811;-71
2021/03/27 04:37:42;;;;;;;0.73;0.67;;;;;;;;;;5073869;28;20458;-73
2021/03/27 04:40:21;;;;;;;1.00;0.60;;;;;;;;;;5074350;28;20411;-68
2021/03/27 04:42:53;;;;;;;2.80;0.52;;;;;;;;;;5073320;28;20379;-69
2021/03/27 04:45:26;;;;;;;1.30;0.70;;;;;;;;;;5074282;28;20376;-69
2021/03/27 04:48:18;;;;;;;1.10;0.40;;;;;;;;;;5073466;28;21024;-68
2021/03/27 04:50:52;;;;;;;0.40;0.40;;;;;;;;;;5070914;28;20403;-67
2021/03/27 04:53:22;;;;;;;0.40;0.30;;;;;;;;;;5074468;28;20400;-67
2021/03/27 04:55:56;;;;;;;0.93;0.30;;;;;;;;;;5073376;28;20364;-65
2021/03/27 04:58:45;;;;;;;0.40;0.30;;;;;;;;;;5073978;28;20454;-66
2021/03/27 05:01:23;;;;;;;0.50;0.40;;;;;;;;;;5073924;28;20388;-66
2021/03/27 05:03:49;;;;;;;0.50;0.30;;;;;;;;;;5073376;28;20411;-66
2021/03/27 05:06:18;;;;;;;0.60;0.30;;;;;;;;;;5074256;28;20376;-67
2021/03/27 05:08:45;;;;;;;0.43;0.32;;;;;;;;;;5073151;28;20788;-67
2021/03/27 05:11:23;;;;;;;0.40;0.30;;;;;;;;;;5074278;28;20388;-65
2021/03/27 05:13:58;;;;;;;0.40;0.25;;;;;;;;;;5072968;28;20783;-68
2021/03/27 05:16:28;;;;;;;0.60;0.30;;;;;;;;;;5074065;28;20368;-68
2021/03/27 05:19:01;;;;;;;1.60;0.30;;;;;;;;;;5073196;28;21059;-68
2021/03/27 05:21:32;;;;;;;0.60;0.50;;;;;;;;;;5073945;28;20368;-69
2021/03/27 05:24:11;;;;;;;0.40;0.30;;;;;;;;;;5073032;28;20380;-68
2021/03/27 05:26:43;;;;;;;0.40;0.30;;;;;;;;;;5072888;28;20404;-71
2021/03/27 05:29:12;;;;;;;0.47;0.38;;;;;;;;;;5073739;28;20372;-69
2021/03/27 05:31:38;;;;;;;0.60;0.40;;;;;;;;;;5072709;28;20375;-70
2021/03/27 05:34:21;;;;;;;0.70;0.50;;;;;;;;;;5073868;28;20379;-70
2021/03/27 05:36:47;;;;;;;0.90;0.30;;;;;;;;;;5072717;28;20447;-72
2021/03/27 05:39:23;;;;;;;0.50;0.40;;;;;;;;;;5073265;28;20964;-71
2021/03/27 05:42:02;;;;;;;0.82;0.45;;;;;;;;;;5072204;28;20375;-71
2021/03/27 05:44:40;;;;;;;0.50;0.40;;;;;;;;;;5074375;28;20387;-71
2021/03/27 05:47:12;;;;;;;1.05;0.70;;;;;;;;;;5074650;28;20371;-72
2021/03/27 05:49:44;;;;;;;2.00;0.80;;;;;;;;;;5073033;28;20383;-74
2021/03/27 05:52:40;;;;;;;0.60;0.50;;;;;;;;;;5073596;28;20736;-69
2021/03/27 05:55:24;;;;;;;1.20;0.40;;;;;;;;;;5055955;28;20935;-69
2021/03/27 05:58:05;;;;;;;1.30;0.70;;;;;;;;;;5072153;28;20372;-70
2021/03/27 06:00:49;;;;;;;0.50;0.40;;;7.90;99.90;;;;;;5073167;28;20421;-70
2021/03/27 06:03:15;;;;;;;0.68;0.40;;;;;;;;;;5072782;28;20851;-70
2021/03/27 06:06:03;;;;;;;0.50;0.40;;;;;;;;;;5072378;28;20461;-71
2021/03/27 06:08:47;;;;;;;1.60;0.40;;;;;;;;;;5072770;28;20383;-69
2021/03/27 06:11:32;;;;;;;2.20;0.45;;;;;;;;;;5072942;28;20376;-69
2021/03/27 06:14:07;;;;;;;0.50;0.50;;;;;;;;;;5072387;28;20384;-70
2021/03/27 06:16:45;;;;;;;0.80;0.55;;;;;;;;;;5073389;28;20452;-70
2021/03/27 06:19:23;;;;;;;1.90;0.45;;;;;;;;;;5073082;28;20502;-69
2021/03/27 06:22:08;;;;;;;1.60;0.50;;;;;;;;;;5072024;28;20410;-70
2021/03/27 06:24:34;;;;;;;1.85;0.68;;;;;;;;;;5072728;28;20426;-69
2021/03/27 06:27:06;;;;;;;2.03;0.50;;;;;;;;;;5071915;28;20368;-70
2021/03/27 06:29:38;;;;;;;3.40;0.70;;;;;;;;;;5072301;28;20382;-70
2021/03/27 06:32:04;;;;;;;2.10;0.60;;;;;;;;;;5072180;28;20480;-70
2021/03/27 06:34:30;;;;;;;1.55;0.45;;;;;;;;;;5072457;28;20379;-72
2021/03/27 06:36:56;;;;;;;1.05;0.50;;;;;;;;;;5071752;28;20415;-71
2021/03/27 06:39:28;;;;;;;1.77;0.60;;;;;;;;;;5072350;28;20414;-71
2021/03/27 06:42:24;;;;;;;2.20;0.40;;;7.60;99.90;;;;;;5071358;28;20868;-70
2021/03/27 06:45:05;;;;;;;1.63;0.50;;;;;;;;;;5071690;28;20709;-71
2021/03/27 06:47:31;;;;;;;1.70;0.50;;;;;;;;;;5072286;28;20376;-70
2021/03/27 06:50:00;;;;;;;1.10;0.40;;;;;;;;;;5071745;28;20463;-70
2021/03/27 06:52:29;;;;;;;1.42;0.60;;;;;;;;;;5070132;28;20783;-71
2021/03/27 06:55:33;;;;;;;0.70;0.50;;;;;;;;;;5071316;28;20380;-71
2021/03/27 06:58:08;;;;;;;1.30;0.60;;;;;;;;;;5028757;28;20399;-70
2021/03/27 07:00:43;;;;;;;0.60;0.50;;;;;;;;;;5060170;28;20422;-71
2021/03/27 07:03:08;;;;;;;2.67;0.85;;;;;;;;;;5071992;28;20375;-71
2021/03/27 07:05:57;;;;;;;0.63;0.60;;;;;;;;;;5071640;28;20383;-71
2021/03/27 07:08:42;;;;;;;2.20;0.60;;;;;;;;;;5071698;28;20471;-70
2021/03/27 07:11:08;;;;;;;0.77;0.50;;;;;;;;;;5071369;28;20454;-72
2021/03/27 07:13:39;;;;;;;1.13;0.60;;;;;;;;;;5071526;28;20384;-71
2021/03/27 07:16:08;;;;;;;1.15;0.63;;;;;;;;;;5071057;28;20411;-71
2021/03/27 07:18:43;;;;;;;1.10;0.70;;;;;;;;;;5071411;28;20433;-71
2021/03/27 07:21:36;;;;;;;1.10;0.70;;;;;;;;;;5071510;28;20367;-69
2021/03/27 07:24:11;;;;;;;2.00;0.50;;;;;;;;;;5070965;28;20383;-69
2021/03/27 07:26:55;;;;;;;1.80;0.70;;;;;;;;;;5071685;28;20384;-71
2021/03/27 07:29:31;;;;;;;1.10;0.40;;;;;;;;;;5071526;28;20425;-69
2021/03/27 07:32:00;;;;;;;1.30;0.47;;;;;;;;;;5070537;28;20384;-70
2021/03/27 07:34:45;;;;;;;1.00;0.70;;;;;;;;;;5073462;28;20476;-69
2021/03/27 07:37:30;;;;;;;1.80;0.68;;;;;;;;;;5066195;28;20882;-70
2021/03/27 07:40:08;;;;;;;2.05;0.55;;;;;;;;;;5067655;28;20424;-68
2021/03/27 07:42:53;;;;;;;1.10;0.60;;;;;;;;;;5075935;28;20494;-68
2021/03/27 07:45:32;;;;;;;2.80;0.50;;;;;;;;;;5081843;28;20481;-69
2021/03/27 07:48:19;;;;;;;3.40;0.52;;;;;;;;;;5072614;28;20416;-67
2021/03/27 07:50:57;;;;;;;1.88;0.55;;;;;;;;;;5070378;28;20427;-70
2021/03/27 07:53:23;;;;;;;0.60;0.52;;;;;;;;;;5067083;28;20377;-71
2021/03/27 07:55:49;;;;;;;1.25;0.50;;;;;;;;;;5090438;28;20374;-70
2021/03/27 07:58:15;;;;;;;0.97;0.60;;;;;;;;;;5090258;28;20743;-69
2021/03/27 08:00:41;;;;;;;1.55;0.70;;;;;;;;;;5091878;28;20882;-68
2021/03/27 08:03:25;;;;;;;1.80;0.60;;;;;;;;;;5091132;28;20541;-69
2021/03/27 08:06:01;;;;;;;1.10;0.40;;;;;;;;;;5090503;28;20472;-70
2021/03/27 08:08:54;;;;;;;2.00;0.50;;;;;;;;;;5091394;28;20522;-71
2021/03/27 08:11:26;;;;;;;1.30;0.60;;;;;;;;;;5091139;28;20374;-70
2021/03/27 08:14:11;;;;;;;0.95;0.52;;;;;;;;;;5090330;28;20866;-71
2021/03/27 08:17:05;;;;;;;1.00;0.50;;;;;;;;;;5090890;28;20387;-70
2021/03/27 08:19:33;;;;;;;3.03;0.50;;;;;;;;;;5091255;28;20489;-69
2021/03/27 08:22:30;;;;;;;3.30;0.80;;;8.80;99.90;;;;;;5090175;28;20374;-70
2021/03/27 08:25:14;;;;;;;0.90;0.40;;;;;;;;;;5090101;28;20374;-70
2021/03/27 08:27:43;;;;;;;1.40;0.70;;;;;;;;;;5090846;28;20749;-70
2021/03/27 08:30:45;;;;;;;1.00;0.50;;;;;;;;;;5090172;28;20414;-70
2021/03/27 08:33:11;;;;;;;0.52;0.50;;;;;;;;;;4990768;28;20394;-69
2021/03/27 08:35:37;;;;;;;1.73;0.40;;;;;;;;;;5054082;28;20407;-69
2021/03/27 08:38:15;;;;;;;3.30;0.90;;;;;;;;;;5069494;28;20706;-70
2021/03/27 08:40:47;;;;;;;0.70;0.60;;;;;;;;;;5070314;28;20404;-69
2021/03/27 08:43:13;;;;;;;1.80;0.60;;;;;;;;;;5071085;28;20871;-68
2021/03/27 08:45:58;;;;;;;0.80;0.50;;;;;;;;;;5070895;28;20380;-69
2021/03/27 08:48:42;;;;;;;1.80;0.60;;;;;;;;;;5070898;28;20376;-70
2021/03/27 08:51:11;;;;;;;1.25;0.43;;;;;;;;;;5069267;28;21368;-69
2021/03/27 08:53:37;;;;;;;0.93;0.45;;;;;;;;;;5072197;28;20376;-70
2021/03/27 08:56:12;;;;;;;2.25;0.57;;;;;;;;;;5081293;28;20390;-70
2021/03/27 08:58:50;;;;;;;1.20;0.80;;;;;;;;;;5074088;28;20860;-69
2021/03/27 09:01:26;;;;;;;1.00;0.50;;;;;;;;;;5063668;28;20467;-68
2021/03/27 09:04:15;;;;;;;2.10;1.10;;;;;;;;;;5068315;28;20402;-71
2021/03/27 09:07:04;;;;;;;1.33;0.50;;;;;;;;;;5070145;28;20390;-69
2021/03/27 09:09:36;;;;;;;0.50;0.40;;;;;;;;;;5070476;28;20500;-69
2021/03/27 09:12:05;;;;;;;1.73;0.60;;;;;;;;;;5069506;28;20379;-69
2021/03/27 09:14:37;;;;;;;0.80;0.50;;;;;;;;;;5070022;28;20376;-69
2021/03/27 09:17:18;;;;;;;0.60;0.40;;;;;;;;;;5071293;28;20382;-69
2021/03/27 09:19:44;;;;;;;0.50;0.30;;;;;;;;;;5077060;28;20403;-70
2021/03/27 09:22:10;;;;;;;0.70;0.40;;;;;;;;;;5076624;28;20391;-69
2021/03/27 09:24:43;;;;;;;0.50;0.43;;;;;;;;;;5091897;28;20571;-70
2021/03/27 09:27:28;;;;;;;1.52;0.65;;;;;;;;;;5092857;28;20885;-68
2021/03/27 09:29:54;;;;;;;1.70;0.70;;;;;;;;;;5077992;28;20379;-68
2021/03/27 09:32:30;;;;;;;0.80;0.60;;;;;;;;;;5082505;28;20376;-69
2021/03/27 09:35:16;;;;;;;1.00;0.50;;;;;;;;;;5086021;28;20847;-70
2021/03/27 09:37:42;;;;;;;1.00;0.47;;;;;;;;;;5086623;28;20385;-70
2021/03/27 09:40:34;;;;;;;1.58;0.57;;;;;;;;;;5092525;28;20418;-69
2021/03/27 09:43:03;;;;;;;1.75;0.40;;;;;;;;;;5049036;28;20486;-68
2021/03/27 09:45:47;;;;;;;0.80;0.60;;;;;;;;;;5088660;28;20455;-70
2021/03/27 09:48:13;;;;;;;2.60;0.60;;;;;;;;;;5075873;28;20473;-70
2021/03/27 09:50:48;;;;;;;0.95;0.60;;;;;;;;;;5088651;28;20376;-68
2021/03/27 09:53:33;;;;;;;0.50;0.40;;;;;;;;;;5081854;28;20390;-70
2021/03/27 09:56:08;;;;;;;1.67;0.60;;;;;;;;;;5076841;28;20383;-69
2021/03/27 09:58:37;;;;;;;2.30;0.80;;;;;;;;;;5082394;28;20380;-70
2021/03/27 10:01:12;;;;;;;0.40;0.30;;;;;;;;;;5083613;28;20411;-68
2021/03/27 10:03:47;;;;;;;2.70;0.70;;;;;;;;;;5076666;28;20378;-69
2021/03/27 10:06:50;;;;;;;3.10;0.70;;;9.80;99.90;;;;;;5084523;28;20383;-69
2021/03/27 10:09:16;;;;;;;2.30;0.40;;;;;;;;;;5085650;28;20858;-69
2021/03/27 10:11:43;;;;;;;1.00;0.40;;;;;;;;;;5076706;28;20461;-69
2021/03/27 10:14:09;;;;;;;0.70;0.40;;;;;;;;;;5085156;28;20410;-71
2021/03/27 10:16:40;;;;;;;0.85;0.40;;;;;;;;;;5078215;28;20404;-70
2021/03/27 10:19:19;;;;;;;1.60;0.60;;;;;;;;;;5074373;28;20403;-69
2021/03/27 10:22:00;;;;;;;1.27;0.30;;;9.90;85.80;;;;;;5075512;28;20446;-68
2021/03/27 10:24:26;;;;;;;1.50;0.60;;;10.00;92.00;;;;;;5083023;28;20380;-69
2021/03/27 10:27:21;;;;;;;2.50;0.43;;;9.40;99.70;;;;;;5084478;28;20378;-72
2021/03/27 10:30:03;;;;;;;0.93;0.40;;;9.50;79.10;;;;;;5067518;28;20416;-69
2021/03/27 10:32:31;;;;;;;0.80;0.50;;;;;;;;;;5090208;28;20873;-68
2021/03/27 10:35:06;;;;;;;2.10;0.77;;;;;;;;;;5077609;28;20462;-68
2021/03/27 10:37:32;;;;;;;10.90;0.70;;;;;;;;;;5088823;28;20370;-68
2021/03/27 10:39:58;;;;;;;0.53;0.40;;;;;;;;;;5070929;28;20502;-69
2021/03/27 10:42:24;;;;;;;1.73;0.70;;;;;;;;;;5073843;28;20391;-68
2021/03/27 10:45:09;;;;;;;1.65;0.47;;;;;;;;;;5074144;28;20372;-71
2021/03/27 10:47:35;;;;;;;1.10;0.50;;;;;;;;;;5072527;28;20420;-69
2021/03/27 10:50:01;;;;;;;1.60;0.60;;;;;;;;;;5074250;28;20475;-70
2021/03/27 10:52:46;;;;;;;2.38;0.70;;;;;;;;;;5078705;28;20379;-71
2021/03/27 10:55:21;;;;;;;2.00;0.80;;;;;;;;;;5072532;28;20384;-69
2021/03/27 10:58:02;;;;;;;0.60;0.50;;;;;;;;;;5074232;28;20951;-70
2021/03/27 11:00:37;;;;;;;2.00;0.60;;;;;;;;;;5077428;28;20414;-69
2021/03/27 11:03:24;;;;;;;1.00;0.40;;;;;;;;;;5074913;28;20923;-68
2021/03/27 11:06:09;;;;;;;1.35;0.70;;;;;;;;;;5074091;28;20388;-71
2021/03/27 11:08:43;;;;;;;0.73;0.50;;;;;;;;;;5071395;28;20400;-68
2021/03/27 11:11:14;;;;;;;1.77;0.70;;;;;;;;;;5071536;28;20917;-69
2021/03/27 11:13:59;;;;;;;1.60;0.70;;;;;;;;;;5072441;28;20390;-69
2021/03/27 11:16:44;;;;;;;1.58;0.70;;;;;;;;;;5076159;28;20388;-67
2021/03/27 11:19:19;;;;;;;1.63;0.70;;;;;;;;;;5077157;28;20411;-65
2021/03/27 11:21:48;;;;;;;1.10;0.50;;;;;;;;;;5082931;28;20381;-66
2021/03/27 11:24:24;;;;;;;0.90;0.40;;;;;;;;;;5066359;28;20390;-69
2021/03/27 11:27:06;;;;;;;1.00;0.50;;;;;;;;;;5065545;28;20390;-69
2021/03/27 11:29:51;;;;;;;0.80;0.50;;;;;;;;;;5067751;28;20414;-66
2021/03/27 11:32:32;;;;;;;1.10;0.45;;;;;;;;;;5069178;28;20462;-68
2021/03/27 11:34:58;;;;;;;0.80;0.40;;;;;;;;;;5065026;28;20387;-70
2021/03/27 11:37:27;;;;;;;0.40;0.40;;;;;;;;;;5069095;28;20376;-70
2021/03/27 11:40:06;;;;;;;1.92;0.57;;;;;;;;;;5068850;28;20417;-70
2021/03/27 11:42:35;;;;;;;0.40;0.30;;;;;;;;;;5068224;28;21228;-68
2021/03/27 11:45:10;;;;;;;1.35;0.50;;;;;;;;;;5064770;28;20951;-69
2021/03/27 11:47:37;;;;;;;1.60;0.40;;;;;;;;;;5070613;28;20427;-69
2021/03/27 11:50:21;;;;;;;1.40;0.57;;;;;;;;;;5067843;28;20376;-69
2021/03/27 11:53:01;;;;;;;0.60;0.40;;;;;;;;;;5067354;28;20379;-67
2021/03/27 11:55:41;;;;;;;1.30;0.50;;;;;;;;;;5064999;28;20401;-69
2021/03/27 11:58:07;;;;;;;0.70;0.40;;;;;;;;;;5069263;28;20370;-68
2021/03/27 12:00:50;;;;;;;0.80;0.50;;;;;;;;;;5067235;28;20419;-68
2021/03/27 12:03:39;;;;;;;1.40;0.50;;;;;;;;;;5067451;28;21846;-69
2021/03/27 12:06:24;;;;;;;1.30;0.40;;;;;;;;;;5059677;28;20406;-68
2021/03/27 12:09:06;;;;;;;1.00;0.50;;;;;;;;;;5067742;28;20379;-69
2021/03/27 12:11:50;;;;;;;0.47;0.38;;;;;;;;;;5067211;28;20469;-69
2021/03/27 12:14:28;;;;;;;1.10;0.50;;;;;;;;;;5064176;28;20378;-69
2021/03/27 12:17:30;;;;;;;0.70;0.50;;;;;;;;;;5068253;28;20387;-70
2021/03/27 12:20:16;;;;;;;0.50;0.40;;;;;;;;;;5008838;28;20415;-68
2021/03/27 12:22:47;;;;;;;1.50;0.60;;;;;;;;;;5065400;28;20392;-68
2021/03/27 12:25:22;;;;;;;1.73;0.50;;;;;;;;;;5068336;28;20711;-69
2021/03/27 12:28:21;;;;;;;1.10;0.50;;;14.30;76.40;;;;;;5072632;28;20380;-67
2021/03/27 12:31:24;;;;;;;0.90;0.60;;;14.40;85.60;;;;;;5069073;28;20440;-68
2021/03/27 12:34:15;;;;;;;1.40;0.50;;;14.10;56.50;;;;;;5066658;28;20712;-67
2021/03/27 12:36:56;;;;;;;1.20;0.50;;;13.10;47.20;;;;;;5066904;28;20400;-68
2021/03/27 12:39:46;;;;;;;0.85;0.50;;;12.50;49.20;;;;;;5068168;28;20959;-68
2021/03/27 12:42:17;;;;;;;0.80;0.60;;;12.90;57.50;;;;;;5068253;28;20441;-69
2021/03/27 12:45:04;;;;;;;1.10;0.50;;;13.70;52.20;;;;;;5065532;28;20402;-67
2021/03/27 12:47:52;;;;;;;1.40;0.60;;;14.60;46.90;;;;;;5066689;28;20888;-69
2021/03/27 12:50:30;;;;;;;1.63;0.50;;;13.90;49.30;;;;;;5040311;28;20746;-68
2021/03/27 12:53:32;;;;;;;1.80;0.60;;;13.30;45.10;;;;;;5067995;28;20395;-71
2021/03/27 12:56:32;;;;;;;0.75;0.40;;;13.20;54.50;;;;;;5072833;28;20396;-69
2021/03/27 12:59:16;;;;;;;0.70;0.40;;;13.90;55.90;;;;;;5070807;28;20398;-69
2021/03/27 13:01:45;;;;;;;2.20;0.60;;;14.50;47.20;;;;;;5070523;28;20752;-68
2021/03/27 13:04:23;;;;;;;0.80;0.40;;;15.20;57.90;;;;;;5066478;28;20901;-68
2021/03/27 13:07:07;;;;;;;0.80;0.60;;;14.20;64.60;;;;;;5069373;28;20406;-69
2021/03/27 13:09:57;;;;;;;1.30;0.52;;;13.00;69.80;;;;;;5069619;28;20500;-69
2021/03/27 13:12:28;;;;;;;1.80;0.60;;;;;;;;;;5071054;28;20406;-67
2021/03/27 13:14:54;;;;;;;2.03;0.40;;;12.40;70.40;;;;;;5070897;28;20417;-69
2021/03/27 13:17:34;;;;;;;2.05;0.90;;;12.60;73.50;;;;;;5068689;28;20424;-69
2021/03/27 13:20:19;;;;;;;1.27;0.50;;;13.80;76.10;;;;;;5070411;28;20422;-70
2021/03/27 13:23:20;;;;;;;1.60;0.60;;;14.10;72.90;;;;;;5072065;28;20401;-69
2021/03/27 13:26:03;;;;;;;1.80;0.60;;;14.10;52.70;;;;;;5064247;28;20774;-72
2021/03/27 13:29:02;;;;;;;0.90;0.50;;;12.90;56.60;;;;;;5070566;28;20413;-69
2021/03/27 13:31:37;;;;;;;0.70;0.50;;;13.20;78.40;;;;;;5068176;28;20494;-70
2021/03/27 13:34:09;;;;;;;2.30;0.50;;;14.60;72.30;;;;;;5065648;28;20457;-69
2021/03/27 13:36:58;;;;;;;0.80;0.50;;;14.60;69.10;;;;;;5069309;28;20396;-68
2021/03/27 13:39:24;;;;;;;0.85;0.50;;;13.00;74.20;;;;;;5070954;28;20424;-67
2021/03/27 13:41:53;;;;;;;1.10;0.50;;;;;;;;;;5069543;28;20419;-67
2021/03/27 13:44:37;;;;;;;0.60;0.40;;;12.10;72.90;;;;;;5066814;28;20646;-69
2021/03/27 13:47:14;;;;;;;0.93;0.50;;;12.60;72.80;;;;;;5068343;28;20792;-67
2021/03/27 13:50:15;;;;;;;0.75;0.47;;;13.00;71.90;;;;;;5068001;28;20405;-68
2021/03/27 13:52:58;;;;;;;1.50;0.60;;;;;;;;;;5048699;28;20403;-68
2021/03/27 13:55:50;;;;;;;1.42;0.50;;;14.80;66.40;;;;;;5065742;28;20419;-68
2021/03/27 13:58:24;;;;;;;1.60;0.60;;;15.20;71.10;;;;;;5069051;28;20397;-68
2021/03/27 14:01:04;;;;;;;1.40;0.55;;;14.20;68.30;;;;;;5065577;28;20428;-71
2021/03/27 14:03:39;;;;;;;1.45;0.63;;;14.60;58.10;;;;;;5067700;28;20473;-68
2021/03/27 14:06:19;;;;;;;0.63;0.50;;;14.60;46.20;;;;;;5071791;28;20926;-70
2021/03/27 14:09:08;;;;;;;0.60;0.40;;;14.90;43.50;;;;;;5071283;28;20773;-67
2021/03/27 14:12:11;;;;;;;0.70;0.50;;;13.20;49.70;;;;;;5069995;28;20407;-67
2021/03/27 14:15:02;;;;;;;1.23;0.63;;;13.20;42.70;;;;;;5068143;28;20891;-68
2021/03/27 14:17:49;;;;;;;0.70;0.50;;;14.20;42.60;;;;;;5067713;28;20404;-68
2021/03/27 14:20:49;;;;;;;1.70;0.55;;;15.30;41.20;;;;;;5072552;28;20414;-67
2021/03/27 14:23:33;;;;;;;0.90;0.50;;;15.00;38.80;;;;;;5068707;28;20555;-69
2021/03/27 14:26:14;;;;;;;1.30;0.60;;;14.10;39.80;;;;;;5068249;28;20462;-67
2021/03/27 14:28:52;;;;;;;1.10;0.50;;;13.10;68.10;;;;;;5067921;28;20473;-69
2021/03/27 14:31:38;;;;;;;1.00;0.50;;;13.20;42.80;;;;;;5067160;28;20460;-69
2021/03/27 14:34:28;;;;;;;1.50;0.60;;;12.60;42.90;;;;;;5066693;28;20438;-72
2021/03/27 14:37:12;;;;;;;0.90;0.60;;;14.20;43.10;;;;;;5069719;28;20398;-69
2021/03/27 14:40:00;;;;;;;2.67;0.60;;;15.00;41.10;;;;;;5069641;28;20518;-70
2021/03/27 14:42:44;;;;;;;1.27;0.60;;;15.00;39.80;;;;;;5071343;28;20382;-71
2021/03/27 14:45:40;;;;;;;1.20;0.50;;;15.10;38.50;;;;;;5068834;28;20889;-69
2021/03/27 14:48:17;;;;;;;1.40;0.60;;;15.00;39.30;;;;;;5069392;28;20544;-72
2021/03/27 14:50:58;;;;;;;1.75;0.50;;;13.70;40.20;;;;;;5069621;28;20495;-68
2021/03/27 14:53:33;;;;;;;1.20;0.50;;;13.30;41.10;;;;;;5068738;28;20384;-70
2021/03/27 14:56:05;;;;;;;1.00;0.52;;;13.20;41.80;;;;;;5070037;28;20429;-69
2021/03/27 14:59:05;;;;;;;0.80;0.50;;;12.80;43.30;;;;;;5067552;28;20387;-70
2021/03/27 15:01:39;;;;;;;0.80;0.68;;;15.10;41.70;;;;;;5070085;28;20474;-69
2021/03/27 15:04:28;;;;;;;1.52;0.50;;;15.60;40.10;;;;;;5066175;28;20490;-70
2021/03/27 15:06:56;;;;;;;1.30;0.60;;;14.50;38.80;;;;;;5068496;28;20392;-68
2021/03/27 15:09:30;;;;;;;1.40;0.60;;;14.70;39.70;;;;;;5066996;28;20487;-70
2021/03/27 15:12:06;;;;;;;1.40;0.50;;;15.00;38.80;;;;;;5068384;28;20398;-70
2021/03/27 15:14:40;;;;;;;1.00;1.00;;;14.90;39.30;;;;;;5066369;28;20388;-69